Time;durP1;ratioP1;P1;durP2;ratioP2;P2;SDS_P1;SDS_P2;PMS_P1;PMS_P2;Temp;Humidity;BMP_temperature;BMP_pressure;BME280_temperature;BME280_humidity;BME280_pressure;Samples;Min_cycle;Max_cycle;Signal;HPM_P1;HPM_P2
2021/07/17 00:00:36;;;;;;;23.77;21.20;;;18.50;99.90;;;;;;5044841;28;20209;-69
2021/07/17 00:03:03;;;;;;;24.90;22.20;;;18.50;99.90;;;;;;5051921;28;20180;-69
2021/07/17 00:05:28;;;;;;;30.97;21.40;;;18.50;99.90;;;;;;5051889;28;20169;-68
2021/07/17 00:07:54;;;;;;;26.87;23.67;;;18.40;99.90;;;;;;5051846;28;21111;-68
2021/07/17 00:10:25;;;;;;;27.80;22.53;;;18.30;99.90;;;;;;5051245;28;20247;-69
2021/07/17 00:12:51;;;;;;;26.33;23.53;;;18.10;99.90;;;;;;5051538;28;20615;-68
2021/07/17 00:15:20;;;;;;;29.50;23.90;;;18.10;99.90;;;;;;5051846;28;20499;-68
2021/07/17 00:17:46;;;;;;;27.97;24.10;;;18.10;99.90;;;;;;5052053;28;20917;-69
2021/07/17 00:20:14;;;;;;;31.43;24.27;;;18.10;99.90;;;;;;5051395;28;20447;-69
2021/07/17 00:22:40;;;;;;;27.67;24.67;;;18.10;99.90;;;;;;5051815;28;20448;-69
2021/07/17 00:25:15;;;;;;;32.40;23.97;;;18.10;99.90;;;;;;5051704;28;20892;-68
2021/07/17 00:27:41;;;;;;;32.80;26.43;;;18.10;99.90;;;;;;5051591;28;20459;-68
2021/07/17 00:30:08;;;;;;;31.37;25.50;;;18.00;99.90;;;;;;5051212;28;20824;-68
2021/07/17 00:32:34;;;;;;;33.07;28.03;;;18.00;99.90;;;;;;5051908;28;20174;-69
2021/07/17 00:35:00;;;;;;;29.70;24.67;;;18.00;99.90;;;;;;5051634;28;20427;-69
2021/07/17 00:37:25;;;;;;;29.57;23.57;;;18.00;99.90;;;;;;5049343;28;20526;-68
2021/07/17 00:39:51;;;;;;;28.00;25.00;;;18.00;99.90;;;;;;5031340;28;20240;-69
2021/07/17 00:42:16;;;;;;;29.27;24.83;;;18.00;99.90;;;;;;5031677;28;20547;-68
2021/07/17 00:44:42;;;;;;;27.10;23.17;;;18.00;99.90;;;;;;5031570;28;20174;-68
2021/07/17 00:47:08;;;;;;;29.63;26.53;;;18.00;99.90;;;;;;5031523;28;20174;-69
2021/07/17 00:49:33;;;;;;;26.90;23.43;;;17.90;99.90;;;;;;5031315;28;20904;-69
2021/07/17 00:51:59;;;;;;;31.00;23.63;;;18.00;99.90;;;;;;5031721;28;20174;-68
2021/07/17 00:54:26;;;;;;;25.10;22.07;;;18.00;99.90;;;;;;5031656;28;20682;-69
2021/07/17 00:56:53;;;;;;;30.57;24.60;;;18.00;99.90;;;;;;5031473;28;20171;-69
2021/07/17 00:59:22;;;;;;;29.90;23.10;;;18.10;99.90;;;;;;5033454;28;20440;-68
2021/07/17 01:01:52;;;;;;;28.90;24.33;;;18.10;99.90;;;;;;5051563;28;20416;-69
2021/07/17 01:04:18;;;;;;;28.93;23.33;;;18.10;99.90;;;;;;5051358;28;20501;-67
2021/07/17 01:06:44;;;;;;;27.30;22.90;;;18.10;99.90;;;;;;5051370;28;20434;-68
2021/07/17 01:09:10;;;;;;;29.00;25.83;;;17.90;99.90;;;;;;5051410;28;20822;-69
2021/07/17 01:11:39;;;;;;;25.67;23.00;;;17.90;99.90;;;;;;5051192;28;20436;-69
2021/07/17 01:14:05;;;;;;;28.90;23.43;;;17.80;99.90;;;;;;5051293;28;20181;-68
2021/07/17 01:16:32;;;;;;;27.00;23.43;;;17.80;99.90;;;;;;5051290;28;20428;-68
2021/07/17 01:18:57;;;;;;;25.50;21.80;;;17.80;99.90;;;;;;5050926;28;20170;-68
2021/07/17 01:21:23;;;;;;;26.80;23.50;;;17.80;99.90;;;;;;5051138;28;20451;-68
2021/07/17 01:23:48;;;;;;;30.30;22.30;;;17.80;99.90;;;;;;5054260;28;20173;-69
2021/07/17 01:26:16;;;;;;;26.80;23.80;;;17.80;99.90;;;;;;5054716;28;20174;-69
2021/07/17 01:28:41;;;;;;;32.23;25.73;;;17.60;99.90;;;;;;5054429;28;20250;-68
2021/07/17 01:31:07;;;;;;;27.60;24.63;;;17.60;99.90;;;;;;5054921;28;20466;-69
2021/07/17 01:33:34;;;;;;;28.37;25.30;;;17.60;99.90;;;;;;5054705;28;20172;-69
2021/07/17 01:35:59;;;;;;;31.47;25.53;;;17.60;99.90;;;;;;5054692;28;20170;-68
2021/07/17 01:38:25;;;;;;;25.23;22.60;;;17.60;99.90;;;;;;5043583;28;20420;-69
2021/07/17 01:40:51;;;;;;;32.07;27.00;;;17.60;99.90;;;;;;5034574;28;20202;-67
2021/07/17 01:43:16;;;;;;;26.33;23.53;;;17.60;99.90;;;;;;5034528;28;20171;-68
2021/07/17 01:45:45;;;;;;;33.47;25.57;;;17.60;99.90;;;;;;5034661;28;20170;-68
2021/07/17 01:48:11;;;;;;;30.30;24.67;;;17.60;99.90;;;;;;5034347;28;20201;-69
2021/07/17 01:50:38;;;;;;;29.23;25.50;;;17.50;99.90;;;;;;5034208;28;20437;-68
2021/07/17 01:53:05;;;;;;;30.00;24.67;;;17.50;99.90;;;;;;5034392;28;20420;-68
2021/07/17 01:55:31;;;;;;;28.73;25.70;;;17.60;99.90;;;;;;5034269;28;20419;-68
2021/07/17 01:57:59;;;;;;;27.83;24.27;;;17.60;99.90;;;;;;5034300;28;20416;-69
2021/07/17 02:00:25;;;;;;;26.90;23.57;;;17.70;99.90;;;;;;5045414;28;20467;-68
2021/07/17 02:02:51;;;;;;;32.20;24.93;;;17.70;99.90;;;;;;5053946;28;20456;-69
2021/07/17 02:05:18;;;;;;;27.60;24.63;;;17.80;99.90;;;;;;5054133;28;20972;-68
2021/07/17 02:07:45;;;;;;;26.30;23.60;;;17.70;99.90;;;;;;5053952;28;20201;-68
2021/07/17 02:10:17;;;;;;;27.27;24.47;;;17.80;99.90;;;;;;5053508;28;20802;-68
2021/07/17 02:13:03;;;;;;;27.20;23.70;;;17.70;99.90;;;;;;5053977;28;20412;-69
2021/07/17 02:15:31;;;;;;;26.63;24.00;;;17.80;99.90;;;;;;5053954;28;20439;-68
2021/07/17 02:17:58;;;;;;;28.37;24.07;;;17.70;99.90;;;;;;5053724;28;20423;-68
2021/07/17 02:20:24;;;;;;;27.73;22.63;;;17.70;99.90;;;;;;5053521;28;21024;-69
2021/07/17 02:22:50;;;;;;;29.20;25.20;;;17.80;99.90;;;;;;5053603;28;20459;-69
2021/07/17 02:25:16;;;;;;;25.83;22.83;;;17.80;99.90;;;;;;5053722;28;20169;-69
2021/07/17 02:27:42;;;;;;;26.30;23.60;;;17.80;99.90;;;;;;5053525;28;20481;-69
2021/07/17 02:30:09;;;;;;;30.13;25.27;;;17.80;99.90;;;;;;5053299;28;20427;-68
2021/07/17 02:32:35;;;;;;;26.93;22.80;;;17.80;99.90;;;;;;5053494;28;20219;-68
2021/07/17 02:35:01;;;;;;;28.83;24.77;;;17.80;99.90;;;;;;5053235;28;20416;-69
2021/07/17 02:37:26;;;;;;;25.33;22.47;;;17.80;99.90;;;;;;5050788;28;20188;-69
2021/07/17 02:39:52;;;;;;;26.50;23.03;;;17.80;99.90;;;;;;5033095;28;20437;-69
2021/07/17 02:42:18;;;;;;;27.60;24.30;;;17.80;99.90;;;;;;5033482;28;20166;-68
2021/07/17 02:44:44;;;;;;;26.53;23.23;;;17.80;99.90;;;;;;5033414;28;20180;-69
2021/07/17 02:47:09;;;;;;;26.67;23.20;;;17.90;99.90;;;;;;5033339;28;20170;-69
2021/07/17 02:49:35;;;;;;;30.40;23.47;;;17.80;99.90;;;;;;5033529;28;20674;-67
2021/07/17 02:52:00;;;;;;;26.47;23.70;;;17.90;99.90;;;;;;5033252;28;20174;-67
2021/07/17 02:54:26;;;;;;;28.47;25.40;;;17.80;99.90;;;;;;5033215;28;20220;-68
2021/07/17 02:56:52;;;;;;;28.70;24.23;;;17.80;99.90;;;;;;5033256;28;20513;-67
2021/07/17 02:59:17;;;;;;;27.30;22.97;;;17.80;99.90;;;;;;5035040;28;20190;-67
2021/07/17 03:01:43;;;;;;;27.30;22.63;;;17.80;99.90;;;;;;5053059;28;20178;-66
2021/07/17 03:04:08;;;;;;;25.90;23.03;;;17.80;99.90;;;;;;5052926;28;20178;-67
2021/07/17 03:06:34;;;;;;;25.43;22.10;;;17.80;99.90;;;;;;5052913;28;20173;-67
2021/07/17 03:08:59;;;;;;;26.30;22.90;;;17.80;99.90;;;;;;5052482;28;20193;-67
2021/07/17 03:11:25;;;;;;;31.07;24.57;;;17.80;99.90;;;;;;5053033;28;20260;-67
2021/07/17 03:13:51;;;;;;;27.20;23.53;;;17.70;99.90;;;;;;5053129;28;20623;-67
2021/07/17 03:16:16;;;;;;;29.97;24.83;;;17.70;99.90;;;;;;5052827;28;20170;-67
2021/07/17 03:18:43;;;;;;;29.50;25.67;;;17.70;99.90;;;;;;5052396;28;20174;-67
2021/07/17 03:21:09;;;;;;;27.13;24.20;;;17.70;99.90;;;;;;5052516;28;20203;-66
2021/07/17 03:23:35;;;;;;;28.10;24.80;;;17.70;99.90;;;;;;5052570;28;20423;-67
2021/07/17 03:26:01;;;;;;;27.03;24.20;;;17.50;99.90;;;;;;5052579;28;20428;-67
2021/07/17 03:28:26;;;;;;;29.40;24.80;;;17.50;99.90;;;;;;5052234;28;20224;-67
2021/07/17 03:30:52;;;;;;;30.77;25.70;;;17.50;99.90;;;;;;5052390;28;20276;-68
2021/07/17 03:33:18;;;;;;;28.70;24.90;;;17.60;99.90;;;;;;5052474;28;20166;-68
2021/07/17 03:35:43;;;;;;;29.87;25.20;;;17.60;99.90;;;;;;5052329;28;20420;-67
2021/07/17 03:38:09;;;;;;;26.77;23.97;;;17.50;99.90;;;;;;5044079;28;20171;-68
2021/07/17 03:40:35;;;;;;;30.33;26.57;;;17.60;99.90;;;;;;5032048;28;20717;-67
2021/07/17 03:43:00;;;;;;;28.50;23.60;;;17.60;99.90;;;;;;5032367;28;20420;-67
2021/07/17 03:45:26;;;;;;;30.83;24.90;;;17.60;99.90;;;;;;5032362;28;20594;-67
2021/07/17 03:47:51;;;;;;;31.30;25.00;;;17.70;99.90;;;;;;5032274;28;20221;-67
2021/07/17 03:50:17;;;;;;;29.97;26.77;;;17.70;99.90;;;;;;5031873;28;20194;-67
2021/07/17 03:52:42;;;;;;;29.20;26.20;;;17.60;99.90;;;;;;5032316;28;20177;-66
2021/07/17 03:55:09;;;;;;;29.50;25.80;;;17.60;99.90;;;;;;5032349;28;20170;-66
2021/07/17 03:57:35;;;;;;;32.07;25.27;;;17.70;99.90;;;;;;5032187;28;20643;-68
2021/07/17 04:00:00;;;;;;;28.97;25.03;;;17.70;99.90;;;;;;5039901;28;20467;-68
2021/07/17 04:02:29;;;;;;;28.60;24.57;;;17.70;99.90;;;;;;5052011;28;20412;-66
2021/07/17 04:04:57;;;;;;;29.73;26.23;;;17.60;99.90;;;;;;5051846;28;20180;-68
2021/07/17 04:07:22;;;;;;;29.60;25.43;;;17.70;99.90;;;;;;5051874;28;20502;-67
2021/07/17 04:09:48;;;;;;;29.97;26.60;;;17.60;99.90;;;;;;5051528;28;20574;-67
2021/07/17 04:12:13;;;;;;;27.23;23.67;;;17.60;99.90;;;;;;5051875;28;20173;-68
2021/07/17 04:14:39;;;;;;;29.80;26.60;;;17.60;99.90;;;;;;5051891;28;20173;-67
2021/07/17 04:17:04;;;;;;;31.30;26.37;;;17.60;99.90;;;;;;5051810;28;20170;-67
2021/07/17 04:19:30;;;;;;;27.70;22.30;;;17.60;99.90;;;;;;5051424;28;20178;-67
2021/07/17 04:21:56;;;;;;;26.17;23.17;;;17.70;99.90;;;;;;5051876;28;20522;-67
2021/07/17 04:24:21;;;;;;;27.70;24.60;;;17.60;99.90;;;;;;5051806;28;20516;-67
2021/07/17 04:26:47;;;;;;;26.03;23.33;;;17.60;99.90;;;;;;5051697;28;20178;-67
2021/07/17 04:29:13;;;;;;;26.73;23.87;;;17.60;99.90;;;;;;5051431;28;20245;-67
2021/07/17 04:31:39;;;;;;;32.30;24.27;;;17.70;99.90;;;;;;5051612;28;20181;-67
2021/07/17 04:34:04;;;;;;;29.70;23.57;;;17.80;99.90;;;;;;5051549;28;20531;-68
2021/07/17 04:36:32;;;;;;;32.63;23.03;;;17.90;99.90;;;;;;5051658;28;20176;-68
2021/07/17 04:38:57;;;;;;;27.90;23.77;;;17.90;99.90;;;;;;5036263;28;20219;-67
2021/07/17 04:41:23;;;;;;;27.70;21.50;;;17.90;99.90;;;;;;5031913;28;20524;-67
2021/07/17 04:43:49;;;;;;;28.30;22.90;;;18.00;99.90;;;;;;5031737;28;20307;-67
2021/07/17 04:46:14;;;;;;;25.03;22.37;;;18.00;99.90;;;;;;5032152;28;20166;-67
2021/07/17 04:48:40;;;;;;;25.07;22.37;;;17.90;99.90;;;;;;5031213;28;20201;-67
2021/07/17 04:51:05;;;;;;;23.93;21.03;;;18.00;99.90;;;;;;5031569;28;20194;-67
2021/07/17 04:53:31;;;;;;;27.57;21.90;;;18.00;99.90;;;;;;5031636;28;20171;-68
2021/07/17 04:55:56;;;;;;;24.30;20.70;;;18.00;99.90;;;;;;5031611;28;20177;-67
2021/07/17 04:58:22;;;;;;;27.10;24.13;;;18.10;99.90;;;;;;5016021;28;20174;-67
2021/07/17 05:00:47;;;;;;;29.07;23.53;;;18.10;99.90;;;;;;5049904;28;20228;-68
2021/07/17 05:03:13;;;;;;;26.13;23.10;;;18.10;99.90;;;;;;5055225;28;20211;-67
2021/07/17 05:05:40;;;;;;;27.73;23.83;;;18.20;99.90;;;;;;5055360;28;20539;-67
2021/07/17 05:08:06;;;;;;;29.73;22.20;;;18.00;99.90;;;;;;5055068;28;20637;-67
2021/07/17 05:10:32;;;;;;;24.90;21.23;;;18.10;99.90;;;;;;5054891;28;20519;-67
2021/07/17 05:12:57;;;;;;;26.93;23.37;;;18.20;99.90;;;;;;5054988;28;20165;-68
2021/07/17 05:15:23;;;;;;;31.90;24.63;;;18.20;99.90;;;;;;5055172;28;20283;-68
2021/07/17 05:17:48;;;;;;;26.30;23.50;;;18.10;99.90;;;;;;5054866;28;20174;-68
2021/07/17 05:20:14;;;;;;;28.10;25.10;;;18.10;99.90;;;;;;5054734;28;20527;-67
2021/07/17 05:22:41;;;;;;;30.60;24.60;;;18.10;99.90;;;;;;5054873;28;20197;-66
2021/07/17 05:25:07;;;;;;;25.60;22.67;;;18.10;99.90;;;;;;5054893;28;20502;-67
2021/07/17 05:27:33;;;;;;;25.30;22.70;;;18.10;99.90;;;;;;5054733;28;20420;-67
2021/07/17 05:29:58;;;;;;;26.33;22.47;;;18.10;99.90;;;;;;5054497;28;20848;-67
2021/07/17 05:32:24;;;;;;;30.23;24.83;;;18.30;99.90;;;;;;5036944;28;20166;-67
2021/07/17 05:34:50;;;;;;;26.67;23.97;;;18.20;99.90;;;;;;5043430;28;20178;-67
2021/07/17 05:37:15;;;;;;;28.40;21.93;;;18.20;99.90;;;;;;5034578;28;20175;-66
2021/07/17 05:39:41;;;;;;;27.17;22.40;;;18.20;99.90;;;;;;5034362;28;20190;-67
2021/07/17 05:42:06;;;;;;;30.27;24.50;;;18.30;99.90;;;;;;5034520;28;20209;-67
2021/07/17 05:44:32;;;;;;;27.37;23.63;;;18.30;99.90;;;;;;5034680;28;20213;-66
2021/07/17 05:46:58;;;;;;;24.13;21.47;;;18.40;99.90;;;;;;5034329;28;20711;-67
2021/07/17 05:49:24;;;;;;;23.53;21.03;;;18.40;99.90;;;;;;5034125;28;20603;-67
2021/07/17 05:51:49;;;;;;;30.77;24.83;;;18.50;99.90;;;;;;5034471;28;20194;-67
2021/07/17 05:54:15;;;;;;;25.40;22.10;;;18.60;99.90;;;;;;5034405;28;20174;-66
2021/07/17 05:56:40;;;;;;;23.93;21.40;;;18.70;99.90;;;;;;5034397;28;20177;-67
2021/07/17 05:59:06;;;;;;;30.93;22.10;;;18.80;99.90;;;;;;5034632;28;20671;-68
2021/07/17 06:01:31;;;;;;;28.17;22.90;;;18.80;99.90;;;;;;5054105;28;20189;-66
2021/07/17 06:03:57;;;;;;;23.30;20.90;;;18.80;99.90;;;;;;5054086;28;20170;-67
2021/07/17 06:06:23;;;;;;;23.73;21.13;;;18.90;99.90;;;;;;5054084;28;20253;-67
2021/07/17 06:08:49;;;;;;;25.47;22.87;;;18.80;99.90;;;;;;5041527;28;20202;-66
2021/07/17 06:11:14;;;;;;;28.90;21.40;;;18.70;99.90;;;;;;5023963;28;20285;-67
2021/07/17 06:13:40;;;;;;;27.60;22.37;;;18.70;99.90;;;;;;5015913;28;20442;-67
2021/07/17 06:16:06;;;;;;;24.57;21.97;;;18.80;99.90;;;;;;5027625;28;20174;-67
2021/07/17 06:18:31;;;;;;;27.23;21.90;;;18.70;99.90;;;;;;5015430;28;20225;-66
2021/07/17 06:20:58;;;;;;;23.87;21.23;;;18.70;99.90;;;;;;5015139;28;20201;-67
2021/07/17 06:23:24;;;;;;;22.50;20.10;;;18.70;99.90;;;;;;5025282;28;20752;-67
2021/07/17 06:25:49;;;;;;;24.63;21.53;;;18.70;99.90;;;;;;5032775;28;20520;-67
2021/07/17 06:28:15;;;;;;;22.47;20.00;;;18.90;99.90;;;;;;5033482;28;20201;-67
2021/07/17 06:30:40;;;;;;;25.53;22.97;;;19.00;99.90;;;;;;5033462;28;20190;-67
2021/07/17 06:33:06;;;;;;;24.17;20.23;;;19.10;99.90;;;;;;5018867;28;20186;-66
2021/07/17 06:35:31;;;;;;;23.10;20.70;;;19.00;99.90;;;;;;4996225;28;20175;-66
2021/07/17 06:37:57;;;;;;;24.90;22.30;;;19.00;99.90;;;;;;5019983;28;20174;-67
2021/07/17 06:40:23;;;;;;;23.17;20.90;;;19.00;99.90;;;;;;5033185;28;20193;-67
2021/07/17 06:42:50;;;;;;;26.10;22.33;;;19.10;99.90;;;;;;5033571;28;20174;-67
2021/07/17 06:45:17;;;;;;;25.60;22.67;;;19.20;99.90;;;;;;5028413;28;20429;-67
2021/07/17 06:47:42;;;;;;;23.60;20.93;;;19.10;99.90;;;;;;5026714;28;20963;-67
2021/07/17 06:50:09;;;;;;;24.73;22.10;;;19.20;99.90;;;;;;5033061;28;20519;-67
2021/07/17 06:52:35;;;;;;;28.43;23.07;;;19.20;99.90;;;;;;5033330;28;20553;-67
2021/07/17 06:55:04;;;;;;;25.23;20.43;;;19.20;99.90;;;;;;5033255;28;20425;-68
2021/07/17 06:57:30;;;;;;;24.20;21.80;;;19.20;99.90;;;;;;5016334;28;20198;-67
2021/07/17 06:59:56;;;;;;;27.57;22.50;;;19.30;99.90;;;;;;5036995;28;21008;-68
2021/07/17 07:02:21;;;;;;;22.23;19.97;;;19.40;99.90;;;;;;5053063;28;20204;-67
2021/07/17 07:04:47;;;;;;;21.70;19.40;;;19.60;99.90;;;;;;5052923;28;20440;-67
2021/07/17 07:07:13;;;;;;;22.53;20.10;;;19.70;99.90;;;;;;5050843;28;20169;-67
2021/07/17 07:09:38;;;;;;;22.10;19.83;;;19.80;99.90;;;;;;5032025;28;20206;-66
2021/07/17 07:12:04;;;;;;;25.87;21.57;;;19.80;99.90;;;;;;5017884;28;20175;-66
2021/07/17 07:14:29;;;;;;;28.03;21.97;;;19.80;99.90;;;;;;5013385;28;20175;-66
2021/07/17 07:16:55;;;;;;;28.60;21.00;;;19.80;99.90;;;;;;5013291;28;20167;-66
2021/07/17 07:19:21;;;;;;;25.17;22.70;;;19.70;99.90;;;;;;5012671;28;20175;-66
2021/07/17 07:21:48;;;;;;;24.60;20.30;;;19.60;99.90;;;;;;5029012;28;20269;-67
2021/07/17 07:24:13;;;;;;;29.63;20.93;;;19.50;99.90;;;;;;5032727;28;20425;-67
2021/07/17 07:26:39;;;;;;;23.90;20.53;;;19.50;99.90;;;;;;5032704;28;20579;-66
2021/07/17 07:29:04;;;;;;;22.60;20.40;;;19.60;99.90;;;;;;5032182;28;20283;-66
2021/07/17 07:31:30;;;;;;;21.80;19.40;;;19.50;99.90;;;;;;5016396;28;20186;-68
2021/07/17 07:33:56;;;;;;;22.37;20.20;;;19.70;99.90;;;;;;5012746;28;20163;-66
2021/07/17 07:36:22;;;;;;;21.13;19.10;;;19.50;99.90;;;;;;5012785;28;20493;-67
2021/07/17 07:38:47;;;;;;;22.53;20.47;;;19.70;99.90;;;;;;5025922;28;20177;-66
2021/07/17 07:41:13;;;;;;;20.90;18.90;;;19.80;99.90;;;;;;5028066;28;20210;-68
2021/07/17 07:43:41;;;;;;;25.27;20.73;;;19.90;99.90;;;;;;5012628;28;20706;-67
2021/07/17 07:46:06;;;;;;;21.90;19.50;;;19.90;99.90;;;;;;5014434;28;20441;-67
2021/07/17 07:48:33;;;;;;;21.77;19.57;;;20.00;99.90;;;;;;5031867;28;21050;-68
2021/07/17 07:50:59;;;;;;;24.37;19.07;;;20.20;99.90;;;;;;5031703;28;20198;-65
2021/07/17 07:53:24;;;;;;;27.53;21.43;;;20.20;99.90;;;;;;5032406;28;20417;-68
2021/07/17 07:55:50;;;;;;;21.33;19.03;;;20.30;99.90;;;;;;5032138;28;20176;-68
2021/07/17 07:58:15;;;;;;;22.30;20.20;;;20.20;99.90;;;;;;5031997;28;20197;-68
2021/07/17 08:00:41;;;;;;;23.60;20.27;;;20.20;99.90;;;;;;5045637;28;20220;-67
2021/07/17 08:03:06;;;;;;;23.53;21.13;;;20.40;99.90;;;;;;5051966;28;20182;-66
2021/07/17 08:05:32;;;;;;;22.23;19.90;;;20.50;99.90;;;;;;5051969;28;20174;-65
2021/07/17 08:07:57;;;;;;;25.27;21.70;;;20.50;99.90;;;;;;5051886;28;20224;-68
2021/07/17 08:10:23;;;;;;;23.27;20.87;;;20.60;99.90;;;;;;5049160;28;20566;-67
2021/07/17 08:12:49;;;;;;;23.20;20.70;;;20.60;99.90;;;;;;5037757;28;20182;-68
2021/07/17 08:15:16;;;;;;;23.77;19.50;;;20.60;99.90;;;;;;5041735;28;20436;-68
2021/07/17 08:17:42;;;;;;;22.67;20.30;;;20.70;99.90;;;;;;5041438;28;20425;-68
2021/07/17 08:20:09;;;;;;;22.83;20.63;;;20.60;99.90;;;;;;5040633;28;20445;-64
2021/07/17 08:22:38;;;;;;;21.93;19.80;;;20.50;99.90;;;;;;5032409;28;20757;-65
2021/07/17 08:25:06;;;;;;;24.00;21.63;;;20.60;99.90;;;;;;5031702;28;20425;-65
2021/07/17 08:27:31;;;;;;;22.30;19.97;;;20.30;99.90;;;;;;5031464;28;20969;-66
2021/07/17 08:29:57;;;;;;;28.40;22.70;;;20.00;99.90;;;;;;5031308;28;20528;-64
2021/07/17 08:32:23;;;;;;;24.20;22.00;;;19.90;99.90;;;;;;5031973;28;20262;-68
2021/07/17 08:34:51;;;;;;;34.60;24.13;;;19.80;99.90;;;;;;5017889;28;20181;-63
2021/07/17 08:37:17;;;;;;;26.87;24.17;;;19.80;99.90;;;;;;5017125;28;20648;-62
2021/07/17 08:39:43;;;;;;;25.03;22.47;;;20.00;99.90;;;;;;5022919;28;20453;-63
2021/07/17 08:42:09;;;;;;;25.10;22.50;;;20.00;99.90;;;;;;5015879;28;20428;-63
2021/07/17 08:44:37;;;;;;;24.53;22.20;;;19.90;99.90;;;;;;5016117;28;20175;-64
2021/07/17 08:47:04;;;;;;;28.20;24.40;;;20.10;99.90;;;;;;5015829;28;20520;-63
2021/07/17 08:49:30;;;;;;;26.47;23.57;;;20.20;99.90;;;;;;5016206;28;20493;-67
2021/07/17 08:51:56;;;;;;;26.03;23.40;;;20.10;99.90;;;;;;5015805;28;20919;-66
2021/07/17 08:54:22;;;;;;;24.77;22.20;;;20.30;99.90;;;;;;5023765;28;20420;-68
2021/07/17 08:56:49;;;;;;;25.43;22.33;;;20.40;99.90;;;;;;5035419;28;20253;-65
2021/07/17 08:59:16;;;;;;;25.27;22.80;;;20.40;99.90;;;;;;5036591;28;20444;-66
2021/07/17 09:01:42;;;;;;;29.23;24.87;;;20.40;99.90;;;;;;5055116;28;20447;-64
2021/07/17 09:04:08;;;;;;;24.93;22.27;;;20.40;99.90;;;;;;5053633;28;20415;-66
2021/07/17 09:06:34;;;;;;;30.87;23.30;;;20.80;99.90;;;;;;5035221;28;20518;-69
2021/07/17 09:09:02;;;;;;;23.67;21.33;;;21.30;99.90;;;;;;5034633;28;20457;-67
2021/07/17 09:11:38;;;;;;;24.03;21.37;;;21.50;99.90;;;;;;5024047;28;20504;-65
2021/07/17 09:14:04;;;;;;;23.43;21.03;;;21.90;99.90;;;;;;5015246;28;20508;-66
2021/07/17 09:16:31;;;;;;;23.33;21.03;;;22.20;99.90;;;;;;5015220;28;20428;-66
2021/07/17 09:18:58;;;;;;;21.20;19.17;;;22.40;99.90;;;;;;5014935;28;20834;-65
2021/07/17 09:21:30;;;;;;;22.00;19.63;;;22.50;99.90;;;;;;5015032;28;20955;-66
2021/07/17 09:24:01;;;;;;;23.13;20.90;;;22.50;99.90;;;;;;5015534;28;20935;-66
2021/07/17 09:26:32;;;;;;;22.03;20.00;;;22.50;99.90;;;;;;5015053;28;20417;-66
2021/07/17 09:28:59;;;;;;;24.83;20.00;;;22.40;99.90;;;;;;5024273;28;20459;-66
2021/07/17 09:31:26;;;;;;;23.10;20.67;;;22.30;99.90;;;;;;5034566;28;20439;-67
2021/07/17 09:34:02;;;;;;;21.30;18.97;;;22.10;99.90;;;;;;5034737;28;20500;-65
2021/07/17 09:36:27;;;;;;;21.63;19.40;;;21.80;99.90;;;;;;5034674;28;20439;-67
2021/07/17 09:38:53;;;;;;;23.10;18.60;;;21.80;99.90;;;;;;5034337;28;20433;-68
2021/07/17 09:41:20;;;;;;;26.00;18.63;;;21.80;99.90;;;;;;5034728;28;20194;-68
2021/07/17 09:43:45;;;;;;;24.07;21.00;;;21.80;99.90;;;;;;5034299;28;20216;-67
2021/07/17 09:46:15;;;;;;;23.73;19.13;;;21.70;99.90;;;;;;5034585;28;20505;-68
2021/07/17 09:48:45;;;;;;;22.47;19.17;;;21.40;99.90;;;;;;5033904;28;20570;-66
2021/07/17 09:51:18;;;;;;;22.57;20.23;;;21.20;99.90;;;;;;5034410;28;20443;-68
2021/07/17 09:53:51;;;;;;;21.83;19.33;;;21.20;99.90;;;;;;5034381;28;20432;-69
2021/07/17 09:56:20;;;;;;;22.23;20.13;;;21.30;99.90;;;;;;5034329;28;20463;-65
2021/07/17 09:58:47;;;;;;;21.83;19.50;;;21.20;99.90;;;;;;5033802;28;21113;-66
2021/07/17 10:01:19;;;;;;;22.83;20.60;;;21.10;99.90;;;;;;5033992;28;20534;-69
2021/07/17 10:03:45;;;;;;;21.00;18.80;;;21.00;99.90;;;;;;5034143;28;20425;-68
2021/07/17 10:06:26;;;;;;;22.83;20.63;;;21.10;99.90;;;;;;5034086;28;20425;-67
2021/07/17 10:08:52;;;;;;;21.37;19.20;;;20.90;99.90;;;;;;5033728;28;20829;-68
2021/07/17 10:11:25;;;;;;;19.83;17.90;;;20.90;99.90;;;;;;5033871;28;20429;-66
2021/07/17 10:13:52;;;;;;;22.17;19.90;;;20.80;99.90;;;;;;5041122;28;20213;-65
2021/07/17 10:16:23;;;;;;;21.80;19.33;;;20.90;99.90;;;;;;5033172;28;20424;-68
2021/07/17 10:18:51;;;;;;;23.87;21.37;;;21.10;99.90;;;;;;5032722;28;20536;-66
2021/07/17 10:21:17;;;;;;;22.37;20.20;;;21.10;99.90;;;;;;5029874;28;20474;-65
2021/07/17 10:23:44;;;;;;;24.43;21.70;;;21.20;99.90;;;;;;5032933;28;20848;-66
2021/07/17 10:26:10;;;;;;;22.20;20.13;;;21.40;99.90;;;;;;5031452;28;20443;-68
2021/07/17 10:28:36;;;;;;;26.30;21.93;;;21.60;99.90;;;;;;5023329;28;20465;-67
2021/07/17 10:31:03;;;;;;;21.10;18.90;;;21.80;99.90;;;;;;5031304;28;20500;-69
2021/07/17 10:33:32;;;;;;;23.40;21.17;;;21.90;99.90;;;;;;5032515;28;20484;-69
2021/07/17 10:36:04;;;;;;;24.07;21.73;;;22.10;99.90;;;;;;5031694;28;20479;-69
2021/07/17 10:38:32;;;;;;;23.10;20.70;;;22.00;99.90;;;;;;5032169;28;20447;-68
2021/07/17 10:40:59;;;;;;;23.37;21.00;;;21.90;99.90;;;;;;5032940;28;20452;-68
2021/07/17 10:43:25;;;;;;;21.37;19.07;;;21.90;99.90;;;;;;5032926;28;20996;-69
2021/07/17 10:45:51;;;;;;;22.43;20.33;;;21.90;99.90;;;;;;5033505;28;20432;-69
2021/07/17 10:48:31;;;;;;;24.83;22.17;;;21.90;99.90;;;;;;5032790;28;20474;-67
2021/07/17 10:51:00;;;;;;;24.33;21.90;;;21.70;99.90;;;;;;5032799;28;20182;-66
2021/07/17 10:53:40;;;;;;;22.90;20.60;;;22.00;99.90;;;;;;5032250;28;20800;-68
2021/07/17 10:56:28;;;;;;;24.07;21.77;;;22.50;99.90;;;;;;5032453;28;20507;-68
2021/07/17 10:58:57;;;;;;;21.83;19.80;;;22.30;99.90;;;;;;5032652;28;20433;-69
2021/07/17 11:01:23;;;;;;;20.60;18.57;;;22.20;99.90;;;;;;5032772;28;20970;-68
2021/07/17 11:03:49;;;;;;;20.13;18.43;;;21.90;99.90;;;;;;5024800;28;20440;-68
2021/07/17 11:06:31;;;;;;;22.03;19.30;;;21.80;99.90;;;;;;5032674;28;20431;-69
2021/07/17 11:09:17;;;;;;;23.43;21.00;;;21.80;99.90;;;;;;5031901;28;20803;-68
2021/07/17 11:11:43;;;;;;;21.57;19.63;;;21.80;99.90;;;;;;5032700;28;20955;-68
2021/07/17 11:14:11;;;;;;;21.80;20.00;;;21.70;99.90;;;;;;5032624;28;20483;-68
2021/07/17 11:16:44;;;;;;;22.53;20.43;;;21.70;99.90;;;;;;5031603;28;20201;-67
2021/07/17 11:19:22;;;;;;;22.20;20.10;;;21.80;99.90;;;;;;5032142;28;20459;-68
2021/07/17 11:21:47;;;;;;;20.80;18.80;;;21.90;99.90;;;;;;5032403;28;20424;-67
2021/07/17 11:24:14;;;;;;;18.73;16.83;;;22.10;99.90;;;;;;5032175;28;20491;-69
2021/07/17 11:26:41;;;;;;;22.20;20.10;;;22.10;99.90;;;;;;5031897;28;20258;-68
2021/07/17 11:29:12;;;;;;;19.90;18.00;;;22.10;99.90;;;;;;5031909;28;21044;-67
2021/07/17 11:31:50;;;;;;;21.17;18.93;;;22.40;99.90;;;;;;5031239;28;20455;-68
2021/07/17 11:34:24;;;;;;;20.23;18.43;;;22.50;99.90;;;;;;5031725;28;20429;-68
2021/07/17 11:36:55;;;;;;;21.17;19.07;;;22.40;99.90;;;;;;5031953;28;20424;-68
2021/07/17 11:39:25;;;;;;;22.97;19.30;;;22.10;99.90;;;;;;5031494;28;20520;-67
2021/07/17 11:41:51;;;;;;;24.50;21.80;;;22.00;99.90;;;;;;5032145;28;20436;-69
2021/07/17 11:44:17;;;;;;;20.33;18.20;;;22.00;99.90;;;;;;5031575;28;20499;-68
2021/07/17 11:46:59;;;;;;;19.80;17.80;;;22.20;99.90;;;;;;5031752;28;20472;-68
2021/07/17 11:49:42;;;;;;;19.80;17.70;;;22.50;99.90;;;;;;5029495;28;20197;-69
2021/07/17 11:52:16;;;;;;;19.50;17.60;;;22.50;99.90;;;;;;5031800;28;20421;-67
2021/07/17 11:54:49;;;;;;;18.97;17.23;;;22.70;99.90;;;;;;5032014;28;20838;-69
2021/07/17 11:57:20;;;;;;;17.43;15.93;;;22.90;99.90;;;;;;5032012;28;20433;-68
2021/07/17 11:59:47;;;;;;;18.73;17.07;;;23.20;99.90;;;;;;5031329;28;20472;-69
2021/07/17 12:02:18;;;;;;;19.77;17.77;;;23.50;99.90;;;;;;5031384;28;20512;-67
2021/07/17 12:04:52;;;;;;;21.83;17.17;;;23.70;99.90;;;;;;5031911;28;20924;-68
2021/07/17 12:07:28;;;;;;;19.97;17.43;;;23.70;99.90;;;;;;5030937;28;20532;-68
2021/07/17 12:09:58;;;;;;;19.00;17.33;;;23.60;99.90;;;;;;5031449;28;20898;-69
2021/07/17 12:12:27;;;;;;;19.80;18.00;;;23.40;99.90;;;;;;5031534;28;20850;-68
2021/07/17 12:15:18;;;;;;;19.00;17.10;;;23.10;99.90;;;;;;5032027;28;20949;-69
2021/07/17 12:17:46;;;;;;;20.50;18.07;;;23.10;99.90;;;;;;5031562;28;21248;-68
2021/07/17 12:20:17;;;;;;;19.07;17.47;;;23.00;99.90;;;;;;5031227;28;20449;-67
2021/07/17 12:22:54;;;;;;;21.33;16.13;;;23.20;99.90;;;;;;4997877;28;20516;-67
2021/07/17 12:25:26;;;;;;;19.10;17.20;;;23.50;99.90;;;;;;5031514;28;20431;-69
2021/07/17 12:28:12;;;;;;;17.90;16.10;;;23.60;99.90;;;;;;5030881;28;20510;-69